Selfridge, Michigan
Current Conditions -  °F | °C
As of 4:58 AM on Tuesday 27 Jan 2015 (Local Time) from KMTC Reporting Station
Clear Clear  
Wind Chill: -1°   Ceiling: Unl
Heat Index:   Visibility: 10mi
Dew Point:   Wind: 6mph
Humidity: 85%   Direction: 360°N
Pressure: 29.98"   Gusts: NA
Location:  42.5826°N, 82.8345°W
Report Text: KMTC 270958Z AUTO 36005KT 10SM CLR M13/M15 A2998 RMK AO2 SLP167 T11291149 $
Loading
Personal Weather Stations






























Interactive Weather Map New forecast layout! Learn more

10-Day Weather Forecast

Advertisements
Track Severe Weather on mobile